MUCM

Details ICAO MUCM (CMW)
Name IGNACIO AGRAMONTE INTL
Region Cuba
Timezone America/Havana (UTC-5.0)
Plans Departing 28
Arriving 17
Stats Elevation 413 ft / 126 m (AMSL)
Location 21.420427° -77.847437°
Runways 1
Magnetic Variation 7.443° W
Sunrise 2017-12-13 11:41:50 UTC / 2017-12-13 06:41:50 Local
Sunset 2017-12-13 22:32:23 UTC / 2017-12-13 17:32:23 Local
Advertisement - Login to hide

Runways

ID Width Length Bearing (true) Bearing (mag) Surface Threshold Offset Overrun Length
07 148 ft / 45 m 9,838 ft / 2,999 m 68.39° 75.83° Asphalt 0 ft / 0 m 195 ft / 59 m
25 148 ft / 45 m 9,838 ft / 2,999 m 248.40° 255.84° Asphalt 0 ft / 0 m 195 ft / 59 m

Map

Weather


0- 5 10 15 20 25 30 35+ Temperature / ° C

Clouds and Precipitation
Forecast for 2017-12-14 06:00 UTC. Updated an hour ago

Ground ~20,000 ft ~40,000 ft Winds

METAR

MUCM 140350Z 03004KT 9000 SCT020 18/14 Q1019

TAF

Not found

Frequencies

Tower 118.50 MHz AGRAMONTE TWR
Approach 121.30 MHz CAMAGUEY APP
Tower 126.90 MHz CAMAGUEY RDO
Warning: Do not use this data for real-world aviation or navigation. No guarantee of current accuracy is given.